Time;durP1;ratioP1;P1;durP2;ratioP2;P2;SDS_P1;SDS_P2;PMS_P1;PMS_P2;Temp;Humidity;BMP_temperature;BMP_pressure;BME280_temperature;BME280_humidity;BME280_pressure;Samples;Min_cycle;Max_cycle;Signal;HPM_P1;HPM_P2
2022/05/19 00:01:04;;;;;;;;;;;21.50;78.30;;;;;;5046301;28;19920;-72
2022/05/19 00:03:33;;;;;;;;;;;21.50;78.50;;;;;;5043447;28;19913;-71
2022/05/19 00:06:00;;;;;;;;;;;21.40;78.50;;;;;;5044824;28;19913;-71
2022/05/19 00:08:26;;;;;;;;;;;21.40;78.50;;;;;;5026821;28;20379;-72
2022/05/19 00:10:52;;;;;;;;;;;21.30;78.60;;;;;;5026652;28;20683;-71
2022/05/19 00:13:17;;;;;;;;;;;21.30;78.70;;;;;;5036888;28;19921;-71
2022/05/19 00:15:43;;;;;;;;;;;21.30;78.70;;;;;;5027542;28;20378;-71
2022/05/19 00:18:08;;;;;;;;;;;21.30;78.70;;;;;;5026336;28;19958;-71
2022/05/19 00:20:34;;;;;;;;;;;21.20;78.70;;;;;;5038507;28;19917;-71
2022/05/19 00:22:59;;;;;;;;;;;21.20;78.80;;;;;;5025864;28;20003;-71
2022/05/19 00:25:25;;;;;;;;;;;21.20;78.90;;;;;;5036826;28;19917;-71
2022/05/19 00:27:50;;;;;;;;;;;21.20;78.90;;;;;;5037649;28;19991;-70
2022/05/19 00:30:16;;;;;;;;;;;21.10;78.90;;;;;;5035214;28;19964;-71
2022/05/19 00:32:41;;;;;;;;;;;21.10;79.10;;;;;;5039978;28;19925;-71
2022/05/19 00:35:07;;;;;;;;;;;21.10;79.70;;;;;;5026166;28;20429;-71
2022/05/19 00:37:33;;;;;;;;;;;21.10;79.30;;;;;;5029317;28;19921;-71
2022/05/19 00:39:58;;;;;;;;;;;21.10;78.80;;;;;;5022445;28;19952;-71
2022/05/19 00:45:08;;;;;;;;;;;21.00;79.20;;;;;;5026742;28;19919;-71
2022/05/19 00:47:43;;;;;;;;;;;21.00;79.30;;;;;;5045281;28;19912;-71
2022/05/19 00:50:12;;;;;;;;;;;21.00;79.40;;;;;;5042611;28;20011;-71
2022/05/19 00:52:39;;;;;;;;;;;20.90;79.50;;;;;;5038575;28;19943;-71
2022/05/19 00:55:04;;;;;;;;;;;20.90;79.50;;;;;;5037805;28;19912;-71
2022/05/19 00:57:31;;;;;;;;;;;20.90;79.50;;;;;;5040573;28;20389;-71
2022/05/19 01:00:17;;;;;;;;;;;20.80;79.40;;;;;;5045655;28;20429;-71
2022/05/19 01:02:46;;;;;;;;;;;20.90;79.70;;;;;;5005539;28;20045;-71
2022/05/19 01:05:13;;;;;;;;;;;20.80;79.70;;;;;;5006122;28;20378;-71
2022/05/19 01:07:41;;;;;;;;;;;20.80;79.70;;;;;;5034335;28;19917;-71
2022/05/19 01:10:07;;;;;;;;;;;20.80;79.80;;;;;;5020758;28;19965;-71
2022/05/19 01:12:34;;;;;;;;;;;20.70;79.90;;;;;;5037557;28;20451;-71
2022/05/19 01:15:03;;;;;;;;;;;20.80;79.90;;;;;;5033761;28;19917;-70
2022/05/19 01:17:28;;;;;;;;;;;20.70;79.90;;;;;;5036033;28;20000;-71
2022/05/19 01:19:59;;;;;;;;;;;20.70;79.70;;;;;;5044845;28;20035;-71
2022/05/19 01:22:34;;;;;;;;;;;20.70;79.70;;;;;;5031508;28;19919;-71
2022/05/19 01:24:59;;;;;;;;;;;20.70;79.80;;;;;;5029666;28;20007;-71
2022/05/19 01:27:25;;;;;;;;;;;20.70;79.70;;;;;;5041353;28;19977;-71
2022/05/19 01:29:50;;;;;;;;;;;20.60;79.80;;;;;;5065434;28;19993;-71
2022/05/19 01:32:35;;;;;;;;;;;20.60;80.10;;;;;;5062417;28;20022;-70
2022/05/19 01:35:01;;;;;;;;;;;20.60;80.20;;;;;;5064437;28;19912;-71
2022/05/19 01:37:27;;;;;;;;;;;20.60;80.00;;;;;;5061919;28;19967;-71
2022/05/19 01:39:56;;;;;;;;;;;20.60;80.30;;;;;;5045159;28;19959;-71
2022/05/19 01:42:28;;;;;;;;;;;20.50;79.70;;;;;;5048557;28;19920;-72
2022/05/19 01:45:19;;;;;;;;;;;20.60;79.80;;;;;;5053992;28;19912;-71
2022/05/19 01:47:54;;;;;;;;;;;20.50;79.70;;;;;;5049664;28;20605;-71
2022/05/19 01:50:20;;;;;;;;;;;20.50;79.80;;;;;;5064795;28;19913;-71
2022/05/19 01:52:48;;;;;;;;;;;20.50;79.90;;;;;;5060083;28;19927;-71
2022/05/19 01:55:20;;;;;;;;;;;20.50;79.80;;;;;;5064872;28;19994;-71
2022/05/19 01:57:55;;;;;;;;;;;20.40;79.90;;;;;;5062148;28;19919;-71
2022/05/19 02:00:22;;;;;;;;;;;20.40;80.20;;;;;;5046846;28;19919;-71
2022/05/19 02:02:52;;;;;;;;;;;20.40;80.00;;;;;;5062457;28;19940;-71
2022/05/19 02:05:28;;;;;;;;;;;20.40;80.00;;;;;;5064694;28;20019;-71
2022/05/19 02:07:55;;;;;;;;;;;20.40;79.70;;;;;;5053286;28;20689;-71
2022/05/19 02:10:23;;;;;;;;;;;20.40;79.60;;;;;;5048155;28;19912;-71
2022/05/19 02:12:49;;;;;;;;;;;20.30;80.00;;;;;;5053384;28;19920;-71
2022/05/19 02:15:17;;;;;;;;;;;20.30;80.00;;;;;;5028608;28;19928;-71
2022/05/19 02:17:45;;;;;;;;;;;20.30;80.00;;;;;;5043397;28;20008;-71
2022/05/19 02:20:12;;;;;;;;;;;20.30;80.00;;;;;;5052517;28;19917;-71
2022/05/19 02:22:39;;;;;;;;;;;20.30;79.80;;;;;;5044540;28;19912;-71
2022/05/19 02:25:25;;;;;;;;;;;20.30;80.00;;;;;;5057166;28;19962;-71
2022/05/19 02:28:00;;;;;;;;;;;20.20;79.70;;;;;;5063560;28;19924;-70
2022/05/19 02:30:27;;;;;;;;;;;20.30;79.90;;;;;;5060992;28;19927;-71
2022/05/19 02:32:53;;;;;;;;;;;20.20;80.10;;;;;;5068380;28;19927;-71
2022/05/19 02:35:19;;;;;;;;;;;20.20;80.10;;;;;;5065260;28;20288;-71
2022/05/19 02:37:44;;;;;;;;;;;20.20;79.90;;;;;;5064218;28;19919;-71
2022/05/19 02:40:11;;;;;;;;;;;20.20;80.00;;;;;;5056071;28;19916;-71
2022/05/19 02:42:37;;;;;;;;;;;20.20;80.00;;;;;;5037293;28;19913;-71
2022/05/19 02:45:03;;;;;;;;;;;20.20;80.10;;;;;;5046519;28;19946;-71
2022/05/19 02:47:28;;;;;;;;;;;20.20;80.10;;;;;;5067837;28;19912;-71
2022/05/19 02:49:54;;;;;;;;;;;20.10;79.80;;;;;;5065148;28;20019;-71
2022/05/19 02:52:19;;;;;;;;;;;20.10;79.80;;;;;;5063403;28;19924;-71
2022/05/19 02:54:44;;;;;;;;;;;20.10;79.70;;;;;;5041078;28;20366;-71
2022/05/19 02:57:10;;;;;;;;;;;20.10;79.80;;;;;;5067709;28;19908;-71
2022/05/19 02:59:35;;;;;;;;;;;20.10;80.00;;;;;;5067817;28;19912;-71
2022/05/19 03:02:01;;;;;;;;;;;20.10;79.90;;;;;;5065465;28;19924;-72
2022/05/19 03:04:26;;;;;;;;;;;20.10;79.70;;;;;;5068032;28;20277;-72
2022/05/19 03:06:52;;;;;;;;;;;20.10;79.70;;;;;;5063931;28;20420;-71
2022/05/19 03:09:17;;;;;;;;;;;20.00;79.50;;;;;;5040452;28;19909;-71
2022/05/19 03:11:43;;;;;;;;;;;20.00;79.50;;;;;;5059239;28;19916;-71
2022/05/19 03:14:09;;;;;;;;;;;20.00;79.50;;;;;;5062408;28;19917;-71
2022/05/19 03:16:36;;;;;;;;;;;20.00;79.40;;;;;;5047834;28;19916;-71
2022/05/19 03:19:02;;;;;;;;;;;20.00;79.30;;;;;;5048227;28;19920;-71
2022/05/19 03:21:27;;;;;;;;;;;20.00;79.50;;;;;;5062176;28;19913;-71
2022/05/19 03:23:53;;;;;;;;;;;20.00;79.50;;;;;;5067727;28;19917;-71
2022/05/19 03:26:18;;;;;;;;;;;20.00;79.50;;;;;;5046330;28;19912;-71
2022/05/19 03:28:44;;;;;;;;;;;19.90;79.40;;;;;;5067713;28;19920;-72
2022/05/19 03:31:09;;;;;;;;;;;20.00;79.50;;;;;;5064954;28;19921;-71
2022/05/19 03:33:35;;;;;;;;;;;19.90;79.40;;;;;;5067362;28;20021;-71
2022/05/19 03:36:02;;;;;;;;;;;19.90;79.40;;;;;;5067136;28;19955;-71
2022/05/19 03:38:27;;;;;;;;;;;19.90;79.20;;;;;;5056061;28;19917;-71
2022/05/19 03:40:53;;;;;;;;;;;19.90;79.50;;;;;;5046869;28;19919;-71
2022/05/19 03:43:19;;;;;;;;;;;19.90;79.20;;;;;;5061354;28;19922;-71
2022/05/19 03:45:45;;;;;;;;;;;19.90;79.50;;;;;;5048732;28;19913;-71
2022/05/19 03:48:10;;;;;;;;;;;19.90;79.40;;;;;;5058928;28;19995;-71
2022/05/19 03:50:36;;;;;;;;;;;19.90;79.60;;;;;;5067082;28;19920;-71
2022/05/19 03:53:01;;;;;;;;;;;19.80;79.50;;;;;;5053987;28;20023;-71
2022/05/19 03:55:27;;;;;;;;;;;19.80;79.60;;;;;;5026741;28;19913;-71
2022/05/19 03:57:52;;;;;;;;;;;19.80;79.40;;;;;;5041237;28;19920;-71
2022/05/19 04:00:18;;;;;;;;;;;19.80;79.50;;;;;;5048672;28;19912;-71
2022/05/19 04:02:45;;;;;;;;;;;19.80;79.60;;;;;;5064160;28;19916;-71
2022/05/19 04:05:12;;;;;;;;;;;19.80;79.80;;;;;;5066493;28;20022;-72
2022/05/19 04:07:38;;;;;;;;;;;19.80;79.70;;;;;;5057920;28;19917;-71
2022/05/19 04:10:05;;;;;;;;;;;19.80;79.60;;;;;;5046553;28;19973;-72
2022/05/19 04:12:30;;;;;;;;;;;19.80;79.40;;;;;;5045790;28;20047;-71
2022/05/19 04:14:55;;;;;;;;;;;19.80;79.50;;;;;;5054508;28;19913;-71
2022/05/19 04:17:21;;;;;;;;;;;19.70;79.40;;;;;;5046390;28;19939;-72
2022/05/19 04:19:47;;;;;;;;;;;19.70;79.40;;;;;;5060906;28;20016;-72
2022/05/19 04:22:12;;;;;;;;;;;19.70;79.30;;;;;;5050933;28;19947;-71
2022/05/19 04:24:38;;;;;;;;;;;19.70;79.20;;;;;;5046047;28;19923;-71
2022/05/19 04:27:03;;;;;;;;;;;19.70;79.30;;;;;;5045806;28;19932;-72
2022/05/19 04:29:29;;;;;;;;;;;19.70;79.40;;;;;;5055460;28;19958;-71
2022/05/19 04:31:55;;;;;;;;;;;19.70;79.20;;;;;;5064942;28;19912;-71
2022/05/19 04:34:20;;;;;;;;;;;19.70;79.30;;;;;;5060110;28;19916;-71
2022/05/19 04:36:46;;;;;;;;;;;19.70;79.10;;;;;;5010408;28;19913;-71
2022/05/19 04:39:12;;;;;;;;;;;19.70;79.10;;;;;;5036974;28;19921;-71
2022/05/19 04:41:38;;;;;;;;;;;19.70;79.10;;;;;;5066146;28;19908;-71
2022/05/19 04:44:04;;;;;;;;;;;19.60;79.10;;;;;;5044379;28;20369;-71
2022/05/19 04:46:29;;;;;;;;;;;19.60;78.80;;;;;;5065532;28;20011;-71
2022/05/19 04:48:55;;;;;;;;;;;19.60;79.60;;;;;;5063869;28;19912;-71
2022/05/19 04:51:20;;;;;;;;;;;19.60;78.90;;;;;;5064877;28;20642;-71
2022/05/19 04:53:46;;;;;;;;;;;19.60;78.90;;;;;;5036842;28;19924;-71
2022/05/19 04:56:11;;;;;;;;;;;19.70;78.70;;;;;;5062844;28;19920;-71
2022/05/19 04:58:37;;;;;;;;;;;19.70;78.70;;;;;;5065655;28;19919;-73
2022/05/19 05:01:03;;;;;;;;;;;19.60;78.30;;;;;;5062850;28;19927;-72
2022/05/19 05:03:29;;;;;;;;;;;19.70;78.60;;;;;;5065607;28;19912;-71
2022/05/19 05:05:54;;;;;;;;;;;19.70;78.50;;;;;;5062902;28;19919;-71
2022/05/19 05:08:20;;;;;;;;;;;19.70;78.50;;;;;;5033899;28;19920;-71
2022/05/19 05:10:45;;;;;;;;;;;19.70;78.40;;;;;;5051997;28;19920;-71
2022/05/19 05:13:12;;;;;;;;;;;19.70;78.30;;;;;;5064735;28;19917;-71
2022/05/19 05:15:38;;;;;;;;;;;19.70;78.20;;;;;;5051743;28;20553;-71
2022/05/19 05:18:05;;;;;;;;;;;19.80;78.30;;;;;;5065613;28;19952;-71
2022/05/19 05:20:30;;;;;;;;;;;19.80;78.20;;;;;;5059278;28;19916;-71
2022/05/19 05:22:56;;;;;;;;;;;19.80;78.20;;;;;;5045421;28;19920;-71
2022/05/19 05:25:22;;;;;;;;;;;19.80;78.00;;;;;;5043341;28;20011;-71
2022/05/19 05:27:47;;;;;;;;;;;19.80;78.10;;;;;;5064927;28;20326;-71
2022/05/19 05:30:13;;;;;;;;;;;19.80;78.10;;;;;;5064930;28;19912;-71
2022/05/19 05:32:39;;;;;;;;;;;19.80;77.90;;;;;;5022834;28;19921;-72
2022/05/19 05:35:05;;;;;;;;;;;19.80;78.00;;;;;;5023519;28;19920;-71
2022/05/19 05:37:30;;;;;;;;;;;19.80;78.10;;;;;;5052939;28;20749;-71
2022/05/19 05:39:56;;;;;;;;;;;19.90;77.90;;;;;;5045111;28;19917;-71
2022/05/19 05:42:21;;;;;;;;;;;19.80;77.80;;;;;;5054785;28;19956;-71
2022/05/19 05:44:47;;;;;;;;;;;19.90;78.00;;;;;;5054868;28;19912;-71
2022/05/19 05:47:13;;;;;;;;;;;19.90;77.90;;;;;;5050640;28;19917;-71
2022/05/19 05:49:38;;;;;;;;;;;19.90;77.80;;;;;;5064996;28;19923;-71
2022/05/19 05:52:05;;;;;;;;;;;19.90;77.90;;;;;;5059845;28;19916;-71
2022/05/19 05:54:30;;;;;;;;;;;19.90;78.00;;;;;;5056958;28;20689;-71
2022/05/19 05:56:56;;;;;;;;;;;19.90;77.90;;;;;;5061955;28;20003;-71
2022/05/19 05:59:21;;;;;;;;;;;19.90;77.80;;;;;;5065172;28;20452;-71
2022/05/19 06:01:47;;;;;;;;;;;20.00;77.60;;;;;;5043725;28;19916;-72
2022/05/19 06:04:13;;;;;;;;;;;20.00;77.70;;;;;;5069246;28;19939;-71
2022/05/19 06:06:38;;;;;;;;;;;20.00;77.60;;;;;;5049933;28;19975;-71
2022/05/19 06:09:04;;;;;;;;;;;20.00;77.60;;;;;;5050974;28;19913;-71
2022/05/19 06:11:30;;;;;;;;;;;20.00;77.50;;;;;;5030459;28;19913;-71
2022/05/19 06:13:56;;;;;;;;;;;20.00;77.40;;;;;;5060332;28;20435;-71
2022/05/19 06:16:21;;;;;;;;;;;20.00;77.30;;;;;;5048033;28;20011;-71
2022/05/19 06:18:47;;;;;;;;;;;20.00;77.40;;;;;;5058662;28;19956;-71
2022/05/19 06:21:12;;;;;;;;;;;20.10;77.30;;;;;;5061128;28;19991;-71
2022/05/19 06:23:39;;;;;;;;;;;20.10;77.20;;;;;;5055373;28;19959;-71
2022/05/19 06:26:05;;;;;;;;;;;20.10;77.30;;;;;;5068431;28;19917;-71
2022/05/19 06:28:30;;;;;;;;;;;20.10;77.10;;;;;;5065960;28;19917;-72
2022/05/19 06:30:56;;;;;;;;;;;20.20;77.20;;;;;;5068716;28;19912;-72
2022/05/19 06:33:22;;;;;;;;;;;20.20;77.20;;;;;;5065188;28;19921;-72
2022/05/19 06:35:48;;;;;;;;;;;20.20;77.20;;;;;;5068236;28;19912;-72
2022/05/19 06:38:14;;;;;;;;;;;20.20;77.00;;;;;;5060210;28;19913;-71
2022/05/19 06:40:40;;;;;;;;;;;20.30;76.90;;;;;;5029762;28;19913;-71
2022/05/19 06:43:06;;;;;;;;;;;20.30;76.90;;;;;;5028283;28;20576;-71
2022/05/19 06:45:32;;;;;;;;;;;20.30;76.80;;;;;;5046475;28;19921;-72
2022/05/19 06:47:57;;;;;;;;;;;20.40;76.70;;;;;;5048528;28;19919;-71
2022/05/19 06:50:23;;;;;;;;;;;20.40;77.30;;;;;;5061706;28;19966;-71
2022/05/19 06:52:50;;;;;;;;;;;20.40;76.60;;;;;;5059205;28;19917;-71
2022/05/19 06:55:16;;;;;;;;;;;20.50;76.50;;;;;;5063779;28;19908;-72
2022/05/19 06:57:42;;;;;;;;;;;20.50;76.50;;;;;;5068334;28;19924;-72
2022/05/19 07:00:10;;;;;;;;;;;20.60;76.50;;;;;;5064964;28;19912;-71
2022/05/19 07:02:36;;;;;;;;;;;20.60;76.30;;;;;;5051706;28;20560;-71
2022/05/19 07:05:01;;;;;;;;;;;20.70;76.20;;;;;;5044267;28;19912;-71
2022/05/19 07:07:27;;;;;;;;;;;20.70;76.30;;;;;;5067318;28;20011;-71
2022/05/19 07:09:52;;;;;;;;;;;20.70;76.10;;;;;;5050141;28;20685;-72
2022/05/19 07:12:22;;;;;;;;;;;20.80;76.10;;;;;;5066456;28;19981;-71
2022/05/19 07:14:48;;;;;;;;;;;20.80;76.00;;;;;;5056684;28;20357;-72
2022/05/19 07:17:14;;;;;;;;;;;20.90;75.90;;;;;;5067194;28;19962;-71
2022/05/19 07:22:24;;;;;;;;;;;21.00;75.70;;;;;;5050390;28;20572;-72
2022/05/19 07:24:50;;;;;;;;;;;21.00;75.50;;;;;;5047610;28;19913;-71
2022/05/19 07:27:16;;;;;;;;;;;21.00;75.50;;;;;;5064028;28;20699;-71
2022/05/19 07:29:42;;;;;;;;;;;21.10;76.30;;;;;;5066389;28;19917;-72
2022/05/19 07:32:08;;;;;;;;;;;21.10;75.50;;;;;;5063116;28;19947;-71
2022/05/19 07:34:35;;;;;;;;;;;21.10;75.50;;;;;;5048126;28;19994;-71
2022/05/19 07:37:00;;;;;;;;;;;21.10;75.50;;;;;;5063035;28;20007;-71
2022/05/19 07:39:26;;;;;;;;;;;21.20;75.40;;;;;;5049513;28;19999;-72
2022/05/19 07:41:55;;;;;;;;;;;21.20;75.50;;;;;;5055604;28;20725;-71
2022/05/19 07:44:21;;;;;;;;;;;21.30;75.40;;;;;;5059915;28;19940;-72
2022/05/19 07:46:47;;;;;;;;;;;21.30;75.20;;;;;;5052640;28;19913;-71
2022/05/19 07:49:12;;;;;;;;;;;21.40;75.30;;;;;;5066408;28;19954;-71
2022/05/19 07:51:40;;;;;;;;;;;21.40;75.50;;;;;;5063346;28;19916;-71
2022/05/19 07:54:11;;;;;;;;;;;21.50;75.20;;;;;;5056017;28;19916;-71
2022/05/19 07:56:36;;;;;;;;;;;21.50;75.00;;;;;;5063462;28;20001;-71
2022/05/19 07:59:02;;;;;;;;;;;21.50;75.00;;;;;;5048269;28;19916;-71
2022/05/19 08:01:29;;;;;;;;;;;21.50;74.90;;;;;;5045334;28;19913;-71
2022/05/19 08:03:55;;;;;;;;;;;21.60;75.00;;;;;;5058375;28;19935;-72
2022/05/19 08:06:21;;;;;;;;;;;21.60;75.10;;;;;;5046561;28;20751;-72
2022/05/19 08:08:46;;;;;;;;;;;21.60;75.00;;;;;;5051904;28;19917;-71
2022/05/19 08:11:12;;;;;;;;;;;21.70;75.10;;;;;;5046647;28;19924;-71
2022/05/19 08:16:22;;;;;;;;;;;21.80;74.80;;;;;;5046364;28;19919;-71
2022/05/19 08:18:48;;;;;;;;;;;21.80;74.70;;;;;;5041603;28;20391;-72
2022/05/19 08:21:14;;;;;;;;;;;21.90;74.80;;;;;;5058663;28;19913;-71
2022/05/19 08:23:47;;;;;;;;;;;21.90;74.50;;;;;;5057047;28;19923;-71
2022/05/19 08:26:13;;;;;;;;;;;22.00;74.40;;;;;;5065713;28;20009;-71
2022/05/19 08:28:40;;;;;;;;;;;22.10;74.50;;;;;;5063475;28;19920;-71
2022/05/19 08:31:07;;;;;;;;;;;22.10;74.30;;;;;;5066421;28;19947;-72
2022/05/19 08:33:34;;;;;;;;;;;22.20;74.20;;;;;;5063102;28;19931;-71
2022/05/19 08:35:59;;;;;;;;;;;22.20;74.00;;;;;;5060299;28;19938;-71
2022/05/19 08:38:26;;;;;;;;;;;22.30;74.00;;;;;;5035989;28;19916;-71
2022/05/19 08:40:54;;;;;;;;;;;22.30;74.00;;;;;;5046031;28;19920;-71
2022/05/19 08:43:28;;;;;;;;;;;22.30;73.90;;;;;;5047174;28;20557;-71
2022/05/19 08:45:55;;;;;;;;;;;22.40;73.90;;;;;;5028594;28;19921;-71
2022/05/19 08:48:25;;;;;;;;;;;22.40;74.00;;;;;;5045925;28;19966;-71
2022/05/19 08:50:51;;;;;;;;;;;22.50;73.70;;;;;;5065914;28;19924;-71
2022/05/19 08:53:16;;;;;;;;;;;22.50;73.90;;;;;;5042984;28;19917;-72
2022/05/19 08:55:45;;;;;;;;;;;22.60;73.70;;;;;;5064618;28;19922;-71
2022/05/19 08:58:21;;;;;;;;;;;22.60;74.40;;;;;;5065897;28;20411;-72
2022/05/19 09:00:51;;;;;;;;;;;22.60;73.90;;;;;;5062766;28;19999;-71
2022/05/19 09:03:23;;;;;;;;;;;22.60;73.70;;;;;;5063370;28;19916;-71
2022/05/19 09:06:03;;;;;;;;;;;22.70;73.70;;;;;;5060296;28;19912;-71
2022/05/19 09:08:29;;;;;;;;;;;22.80;73.70;;;;;;5056650;28;19924;-71
2022/05/19 09:10:54;;;;;;;;;;;22.80;73.40;;;;;;5059733;28;19912;-71
2022/05/19 09:13:31;;;;;;;;;;;22.80;73.60;;;;;;5065026;28;19923;-71
2022/05/19 09:15:58;;;;;;;;;;;22.90;73.50;;;;;;5058128;28;20030;-71
2022/05/19 09:18:30;;;;;;;;;;;23.00;73.40;;;;;;5065283;28;19920;-71
2022/05/19 09:20:56;;;;;;;;;;;23.00;73.40;;;;;;5057106;28;19913;-71
2022/05/19 09:23:23;;;;;;;;;;;23.00;73.30;;;;;;5045527;28;20012;-71
2022/05/19 09:25:54;;;;;;;;;;;23.10;73.50;;;;;;5053646;28;19912;-71
2022/05/19 09:28:19;;;;;;;;;;;23.10;73.30;;;;;;5065374;28;19973;-72
2022/05/19 09:30:50;;;;;;;;;;;23.10;73.10;;;;;;5062650;28;20543;-71
2022/05/19 09:33:17;;;;;;;;;;;23.20;73.20;;;;;;5064696;28;20307;-71
2022/05/19 09:35:47;;;;;;;;;;;23.20;73.00;;;;;;5062274;28;19927;-71
2022/05/19 09:38:23;;;;;;;;;;;23.30;72.90;;;;;;5057804;28;20004;-72
2022/05/19 09:40:48;;;;;;;;;;;23.30;72.80;;;;;;5034927;28;19974;-72
2022/05/19 09:43:19;;;;;;;;;;;23.30;72.70;;;;;;5065385;28;20412;-71
2022/05/19 09:45:49;;;;;;;;;;;23.40;72.60;;;;;;5048265;28;20296;-71
2022/05/19 09:48:19;;;;;;;;;;;23.40;72.50;;;;;;5065335;28;19999;-72
2022/05/19 09:50:46;;;;;;;;;;;23.40;72.40;;;;;;5053818;28;19944;-71
2022/05/19 09:53:14;;;;;;;;;;;23.50;72.50;;;;;;5055016;28;19932;-71
2022/05/19 09:55:40;;;;;;;;;;;23.60;72.40;;;;;;5063798;28;19919;-71
2022/05/19 09:58:08;;;;;;;;;;;23.60;72.30;;;;;;5045211;28;19920;-71
2022/05/19 10:00:53;;;;;;;;;;;23.60;72.10;;;;;;5064859;28;20293;-72
2022/05/19 10:03:25;;;;;;;;;;;23.60;72.00;;;;;;5060376;28;19917;-71
2022/05/19 10:05:54;;;;;;;;;;;23.70;72.20;;;;;;5043420;28;19917;-71
2022/05/19 10:08:33;;;;;;;;;;;23.70;72.10;;;;;;5053162;28;19931;-71
2022/05/19 10:11:00;;;;;;;;;;;23.80;72.10;;;;;;5045073;28;20254;-72
2022/05/19 10:13:31;;;;;;;;;;;23.80;72.10;;;;;;5059713;28;19916;-72
2022/05/19 10:16:07;;;;;;;;;;;23.90;72.20;;;;;;5044824;28;19923;-72
2022/05/19 10:18:53;;;;;;;;;;;23.90;72.10;;;;;;5057944;28;19917;-72
2022/05/19 10:21:21;;;;;;;;;;;24.00;72.20;;;;;;5002168;28;19916;-71
2022/05/19 10:23:46;;;;;;;;;;;24.10;72.30;;;;;;5059819;28;19916;-71
2022/05/19 10:26:20;;;;;;;;;;;24.10;72.50;;;;;;5064768;28;20281;-71
2022/05/19 10:32:07;;;;;;;;;;;24.20;72.20;;;;;;5064753;28;20018;-71
2022/05/19 10:34:41;;;;;;;;;;;24.30;72.10;;;;;;5064317;28;19970;-71
2022/05/19 10:37:24;;;;;;;;;;;24.40;72.30;;;;;;5060798;28;19964;-72
2022/05/19 10:40:15;;;;;;;;;;;24.50;72.30;;;;;;5044633;28;19917;-72
2022/05/19 10:42:52;;;;;;;;;;;24.60;72.70;;;;;;5043936;28;19913;-71
2022/05/19 10:45:23;;;;;;;;;;;24.70;72.30;;;;;;5049758;28;19960;-71
2022/05/19 10:47:52;;;;;;;;;;;24.70;72.10;;;;;;5043551;28;19913;-72
2022/05/19 10:50:30;;;;;;;;;;;24.90;72.40;;;;;;5068367;28;19913;-71
2022/05/19 10:53:02;;;;;;;;;;;25.00;72.20;;;;;;5048711;28;20568;-71
2022/05/19 10:55:27;;;;;;;;;;;25.00;73.30;;;;;;5067794;28;20462;-72
2022/05/19 10:57:53;;;;;;;;;;;25.10;72.90;;;;;;5068097;28;19912;-71
2022/05/19 11:00:42;;;;;;;;;;;25.10;73.20;;;;;;5065194;28;20438;-72
2022/05/19 11:03:07;;;;;;;;;;;25.10;73.40;;;;;;5066881;28;19944;-71
2022/05/19 11:05:56;;;;;;;;;;;25.30;73.50;;;;;;5063964;28;20356;-71
2022/05/19 11:08:37;;;;;;;;;;;25.30;73.50;;;;;;5060242;28;19913;-71
2022/05/19 11:11:12;;;;;;;;;;;25.30;73.40;;;;;;5027846;28;19928;-71
2022/05/19 11:13:42;;;;;;;;;;;25.30;73.20;;;;;;5057995;28;19916;-72
2022/05/19 11:16:20;;;;;;;;;;;25.40;73.60;;;;;;5065919;28;19916;-72
2022/05/19 11:18:52;;;;;;;;;;;25.40;73.80;;;;;;5067781;28;20598;-71
2022/05/19 11:21:30;;;;;;;;;;;25.50;73.60;;;;;;5057989;28;19914;-71
2022/05/19 11:23:55;;;;;;;;;;;25.60;73.80;;;;;;5047905;28;19912;-71
2022/05/19 11:26:25;;;;;;;;;;;25.70;73.70;;;;;;5063670;28;19916;-71
2022/05/19 11:29:00;;;;;;;;;;;25.80;73.30;;;;;;5067511;28;20269;-72
2022/05/19 11:31:35;;;;;;;;;;;25.80;73.00;;;;;;5047667;28;20023;-71
2022/05/19 11:34:03;;;;;;;;;;;25.80;73.00;;;;;;5046974;28;19917;-71
2022/05/19 11:36:42;;;;;;;;;;;25.80;73.00;;;;;;5061102;28;19998;-71
2022/05/19 11:39:14;;;;;;;;;;;25.70;72.60;;;;;;5053211;28;20285;-71
2022/05/19 11:41:40;;;;;;;;;;;25.70;72.80;;;;;;5061218;28;19920;-71
2022/05/19 11:44:10;;;;;;;;;;;25.70;72.90;;;;;;5031447;28;19909;-72
2022/05/19 11:46:54;;;;;;;;;;;25.90;72.90;;;;;;5059055;28;20011;-71
2022/05/19 11:55:13;;;;;;;;;;;25.90;72.50;;;;;;5063491;28;19962;-71
2022/05/19 11:57:45;;;;;;;;;;;25.90;72.30;;;;;;5064252;28;19924;-70
2022/05/19 12:00:11;;;;;;;;;;;26.00;72.00;;;;;;5056183;28;19940;-71
2022/05/19 12:02:55;;;;;;;;;;;26.10;71.90;;;;;;5037277;28;19917;-71
2022/05/19 12:05:30;;;;;;;;;;;26.20;72.30;;;;;;5034564;28;19924;-72
2022/05/19 12:07:58;;;;;;;;;;;26.10;71.70;;;;;;5038163;28;19967;-71
2022/05/19 12:10:44;;;;;;;;;;;26.00;71.40;;;;;;5025266;28;20607;-71
2022/05/19 12:13:10;;;;;;;;;;;26.10;72.20;;;;;;5061937;28;20082;-71
2022/05/19 12:15:38;;;;;;;;;;;26.20;72.10;;;;;;5049069;28;19913;-71
2022/05/19 12:18:22;;;;;;;;;;;26.40;72.10;;;;;;5060459;28;20007;-71
2022/05/19 12:20:59;;;;;;;;;;;26.50;72.00;;;;;;5066207;28;20683;-71
2022/05/19 12:23:25;;;;;;;;;;;26.60;72.40;;;;;;5063400;28;19913;-71
2022/05/19 12:25:52;;;;;;;;;;;26.60;72.30;;;;;;5058121;28;19924;-71
2022/05/19 12:28:18;;;;;;;;;;;26.80;72.60;;;;;;5048836;28;19920;-71
2022/05/19 12:34:11;;;;;;;;;;;27.00;72.10;;;;;;5002578;28;20011;-71
2022/05/19 12:36:51;;;;;;;;;;;27.10;71.70;;;;;;5003355;28;19920;-71
2022/05/19 12:39:17;;;;;;;;;;;27.20;71.60;;;;;;5022227;28;20032;-71
2022/05/19 12:41:48;;;;;;;;;;;27.20;71.10;;;;;;5046222;28;20007;-70
2022/05/19 12:44:32;;;;;;;;;;;27.40;70.80;;;;;;5055383;28;20004;-71
2022/05/19 12:47:03;;;;;;;;;;;27.50;70.70;;;;;;5046034;28;19913;-70
2022/05/19 12:49:29;;;;;;;;;;;27.60;70.10;;;;;;5061872;28;19912;-70
2022/05/19 12:51:59;;;;;;;;;;;27.70;69.90;;;;;;5064010;28;20013;-70
2022/05/19 12:54:26;;;;;;;;;;;27.80;70.20;;;;;;5055417;28;20650;-70
2022/05/19 12:56:56;;;;;;;;;;;27.90;69.10;;;;;;5065692;28;19912;-71
2022/05/19 12:59:23;;;;;;;;;;;28.00;69.00;;;;;;5062827;28;19916;-71
2022/05/19 13:01:52;;;;;;;;;;;28.00;68.80;;;;;;5065738;28;19912;-71
2022/05/19 13:04:18;;;;;;;;;;;28.10;69.30;;;;;;5052032;28;19917;-71
2022/05/19 13:06:55;;;;;;;;;;;28.00;68.00;;;;;;5027441;28;19913;-71
2022/05/19 13:09:22;;;;;;;;;;;28.00;69.00;;;;;;5039534;28;19920;-71
2022/05/19 13:11:53;;;;;;;;;;;27.90;69.60;;;;;;5045590;28;19951;-71
2022/05/19 13:14:20;;;;;;;;;;;27.80;69.80;;;;;;5038219;28;19946;-71
2022/05/19 13:16:51;;;;;;;;;;;27.70;69.70;;;;;;5045242;28;19909;-71
2022/05/19 13:19:19;;;;;;;;;;;27.60;70.60;;;;;;5048633;28;20471;-71
2022/05/19 13:21:55;;;;;;;;;;;27.50;70.10;;;;;;5052982;28;20332;-71
2022/05/19 13:24:23;;;;;;;;;;;27.40;70.90;;;;;;5048032;28;19920;-71
2022/05/19 13:30:20;;;;;;;;;;;27.40;71.60;;;;;;5063391;28;19920;-71
2022/05/19 13:32:23;;;;;;;;;;;27.20;72.00;;;;;;5064503;28;19921;-70
2022/05/19 13:34:53;;;;;;;;;;;27.10;70.40;;;;;;5059303;28;19924;-72
2022/05/19 13:37:32;;;;;;;;;;;27.00;70.60;;;;;;5043849;28;19920;-71
2022/05/19 13:40:17;;;;;;;;;;;26.80;70.10;;;;;;5041741;28;19958;-72
2022/05/19 13:42:44;;;;;;;;;;;26.70;71.30;;;;;;5065440;28;19919;-72
2022/05/19 13:45:10;;;;;;;;;;;26.50;71.30;;;;;;5055076;28;20367;-72
2022/05/19 13:47:35;;;;;;;;;;;26.40;72.30;;;;;;5065241;28;19912;-72
2022/05/19 13:50:03;;;;;;;;;;;26.30;70.70;;;;;;5062823;28;20460;-72
2022/05/19 13:52:30;;;;;;;;;;;26.10;70.50;;;;;;5059467;28;19959;-72
2022/05/19 13:54:55;;;;;;;;;;;25.90;70.80;;;;;;5058190;28;19912;-73
2022/05/19 13:57:24;;;;;;;;;;;25.90;71.10;;;;;;5046317;28;19912;-73
2022/05/19 13:59:51;;;;;;;;;;;25.70;71.10;;;;;;5065450;28;20347;-72
2022/05/19 14:02:22;;;;;;;;;;;25.50;72.40;;;;;;5062468;28;19917;-73
2022/05/19 14:04:48;;;;;;;;;;;25.40;73.10;;;;;;5050273;28;20592;-73
2022/05/19 14:07:16;;;;;;;;;;;25.20;73.00;;;;;;5058127;28;19927;-73
2022/05/19 14:09:43;;;;;;;;;;;25.10;73.20;;;;;;5045659;28;19913;-73
2022/05/19 14:12:29;;;;;;;;;;;25.00;73.40;;;;;;5055160;28;19958;-73
2022/05/19 14:15:02;;;;;;;;;;;24.90;73.70;;;;;;5035433;28;19963;-73
2022/05/19 14:17:35;;;;;;;;;;;24.80;73.90;;;;;;5023787;28;19944;-73
2022/05/19 14:20:02;;;;;;;;;;;24.70;74.10;;;;;;5050721;28;19913;-73
2022/05/19 14:22:29;;;;;;;;;;;24.70;74.50;;;;;;5039251;28;19946;-73
2022/05/19 14:24:55;;;;;;;;;;;24.60;74.80;;;;;;5068367;28;19970;-73
2022/05/19 14:27:22;;;;;;;;;;;24.50;75.20;;;;;;5047917;28;20635;-73
2022/05/19 14:29:48;;;;;;;;;;;24.40;75.00;;;;;;5069074;28;19912;-73
2022/05/19 14:32:22;;;;;;;;;;;24.30;75.20;;;;;;5059944;28;19917;-73
2022/05/19 14:34:48;;;;;;;;;;;24.20;75.40;;;;;;5059959;28;19916;-73
2022/05/19 14:37:16;;;;;;;;;;;24.20;76.00;;;;;;5039444;28;19921;-73
2022/05/19 14:39:45;;;;;;;;;;;24.10;76.80;;;;;;5038131;28;20348;-73
2022/05/19 14:44:57;;;;;;;;;;;23.90;76.60;;;;;;5040875;28;20265;-73
2022/05/19 14:47:25;;;;;;;;;;;23.90;76.90;;;;;;5050400;28;19923;-73
2022/05/19 14:49:52;;;;;;;;;;;23.80;77.20;;;;;;5068958;28;19919;-73